Time;durP1;ratioP1;P1;durP2;ratioP2;P2;SDS_P1;SDS_P2;PMS_P1;PMS_P2;Temp;Humidity;BMP_temperature;BMP_pressure;BME280_temperature;BME280_humidity;BME280_pressure;Samples;Min_cycle;Max_cycle;Signal;HPM_P1;HPM_P2
2021/12/20 00:00:48;;;;;;;1.35;0.70;;;19.90;42.90;;;23.84;28.44;102269.75;5053016;28;20052;-85
2021/12/20 00:03:14;;;;;;;0.73;0.68;;;19.90;43.00;;;23.82;28.37;102258.28;5053692;28;20125;-85
2021/12/20 00:05:40;;;;;;;0.70;0.70;;;19.90;42.90;;;23.82;28.44;102258.28;5050163;28;20136;-86
2021/12/20 00:08:06;;;;;;;1.17;0.70;;;19.90;43.00;;;23.83;28.45;102265.34;5056014;28;20059;-85
2021/12/20 00:10:33;;;;;;;1.08;0.70;;;19.90;42.90;;;23.83;28.27;102261.81;5040945;28;20048;-85
2021/12/20 00:12:59;;;;;;;1.67;0.60;;;19.90;42.90;;;23.84;28.32;102259.06;5040472;28;20049;-86
2021/12/20 00:15:25;;;;;;;0.80;0.77;;;19.90;42.90;;;23.83;28.28;102256.47;5074936;28;20402;-85
2021/12/20 00:17:51;;;;;;;1.00;0.70;;;19.90;43.00;;;23.84;28.27;102268.88;5055648;28;20400;-85
2021/12/20 00:20:18;;;;;;;1.05;0.60;;;19.90;43.00;;;23.82;28.33;102273.41;5038953;28;20099;-86
2021/12/20 00:22:44;;;;;;;0.65;0.50;;;19.90;43.00;;;23.85;28.22;102274.13;5056876;28;20040;-86
2021/12/20 00:25:10;;;;;;;0.80;0.77;;;19.90;43.00;;;23.85;28.42;102262.59;5056765;28;20053;-86
2021/12/20 00:27:37;;;;;;;0.70;0.68;;;19.90;42.90;;;23.84;28.31;102264.41;5056622;28;20928;-85
2021/12/20 00:30:05;;;;;;;0.50;0.50;;;19.90;42.90;;;23.83;28.24;102256.47;5055617;28;20044;-86
2021/12/20 00:32:31;;;;;;;0.77;0.70;;;19.90;42.90;;;23.83;28.34;102267.16;5039929;28;20072;-85
2021/12/20 00:34:57;;;;;;;1.52;0.80;;;19.90;42.90;;;23.85;28.47;102276.78;5056759;28;20055;-86
2021/12/20 00:40:23;;;;;;;1.10;0.75;;;19.90;42.90;;;23.83;28.44;102265.34;5059203;28;20056;-86
2021/12/20 00:42:53;;;;;;;0.95;0.73;;;19.90;42.90;;;23.85;28.25;102267.94;5039940;28;20131;-85
2021/12/20 00:45:20;;;;;;;0.57;0.57;;;19.90;42.90;;;23.83;28.34;102278.69;5039742;28;20051;-85
2021/12/20 00:47:47;;;;;;;1.13;0.70;;;19.90;42.90;;;23.81;28.42;102285.88;5056442;28;20087;-85
2021/12/20 00:50:16;;;;;;;1.27;0.90;;;19.90;42.90;;;23.82;28.52;102287.66;5056324;28;20509;-85
2021/12/20 00:52:43;;;;;;;2.05;0.70;;;19.90;42.90;;;23.83;28.43;102291.19;5039664;28;20505;-86
2021/12/20 00:55:12;;;;;;;1.38;0.90;;;19.90;42.90;;;23.82;28.50;102278.75;5039736;28;20109;-85
2021/12/20 00:57:38;;;;;;;0.88;0.68;;;19.90;42.90;;;23.83;28.20;102291.19;5023172;28;20055;-86
2021/12/20 01:00:06;;;;;;;0.85;0.60;;;19.90;42.90;;;23.82;28.43;102289.44;5039883;28;20063;-86
2021/12/20 01:02:32;;;;;;;0.95;0.80;;;19.90;42.90;;;23.84;28.30;102299.13;5056251;28;20051;-85
2021/12/20 01:04:58;;;;;;;0.90;0.80;;;19.90;42.90;;;23.83;28.33;102294.72;5056128;28;20040;-86
2021/12/20 01:07:24;;;;;;;1.15;0.60;;;19.90;42.90;;;23.81;28.36;102290.38;5039548;28;20057;-86
2021/12/20 01:09:50;;;;;;;1.13;1.00;;;19.90;42.90;;;23.81;28.24;102301.91;5056134;28;20463;-85
2021/12/20 01:12:20;;;;;;;0.60;0.60;;;19.90;42.90;;;23.82;28.48;102305.47;5039467;28;20048;-86
2021/12/20 01:14:46;;;;;;;1.30;0.90;;;19.90;42.90;;;23.83;28.46;102304.53;5056478;28;20040;-86
2021/12/20 01:17:14;;;;;;;0.93;0.73;;;19.90;42.90;;;23.84;28.34;102307.13;5055798;28;20052;-85
2021/12/20 01:19:40;;;;;;;1.10;0.80;;;19.90;42.90;;;23.82;28.37;102297.47;5055110;28;20072;-86
2021/12/20 01:22:06;;;;;;;0.85;0.65;;;19.90;42.90;;;23.82;28.46;102295.69;5055767;28;20402;-85
2021/12/20 01:24:32;;;;;;;1.17;0.70;;;19.90;42.90;;;23.84;28.37;102296.44;5022815;28;20113;-86
2021/12/20 01:26:58;;;;;;;1.02;0.70;;;19.90;42.90;;;23.84;28.45;102301.78;5022652;28;20083;-85
2021/12/20 01:29:24;;;;;;;1.40;0.60;;;19.90;42.90;;;23.83;28.33;102308.06;5038060;28;20145;-85
2021/12/20 01:31:50;;;;;;;1.02;0.60;;;19.90;42.90;;;23.84;28.24;102309.81;5055769;28;20516;-85
2021/12/20 01:34:16;;;;;;;0.77;0.70;;;19.90;43.40;;;23.86;28.18;102307.06;5039139;28;20071;-86
2021/12/20 01:36:43;;;;;;;0.93;0.70;;;19.90;42.90;;;23.83;28.13;102293.84;5039187;28;20494;-85
2021/12/20 01:39:09;;;;;;;0.80;0.60;;;19.90;42.90;;;23.83;28.30;102302.72;5037067;28;20099;-85
2021/12/20 01:41:40;;;;;;;1.42;0.80;;;19.90;42.90;;;23.83;28.46;102293.84;5022448;28;20036;-86
2021/12/20 01:44:07;;;;;;;0.95;0.70;;;19.90;42.90;;;23.83;28.41;102297.38;5038951;28;20052;-85
2021/12/20 01:46:33;;;;;;;0.80;0.65;;;19.90;42.80;;;23.87;28.40;102311.44;5038830;28;20127;-85
2021/12/20 01:49:01;;;;;;;1.08;0.80;;;19.90;42.90;;;23.84;28.31;102299.13;5052876;28;20558;-86
2021/12/20 01:53:59;;;;;;;1.13;0.65;;;19.90;42.90;;;23.83;28.46;102302.72;5056188;28;20098;-85
2021/12/20 01:56:25;;;;;;;1.27;0.65;;;19.90;42.90;;;23.84;28.16;102298.28;5055882;28;20078;-85
2021/12/20 01:58:51;;;;;;;1.10;0.77;;;19.90;42.90;;;23.83;28.35;102294.72;5054760;28;20053;-85
2021/12/20 02:03:51;;;;;;;0.60;0.60;;;19.90;42.80;;;23.85;28.39;102290.16;5038622;28;20053;-85
2021/12/20 02:06:25;;;;;;;1.05;0.75;;;19.90;42.80;;;23.86;28.39;102293.72;5022632;28;20052;-86
2021/12/20 02:08:51;;;;;;;0.90;0.75;;;19.90;42.80;;;23.83;28.26;102293.84;5038555;28;20103;-86
2021/12/20 02:11:20;;;;;;;1.33;0.60;;;19.90;42.80;;;23.85;28.29;102289.28;5038498;28;20509;-85
2021/12/20 02:13:45;;;;;;;0.70;0.70;;;19.90;42.80;;;23.84;28.36;102284.91;5021953;28;20048;-86
2021/12/20 02:16:11;;;;;;;1.08;0.75;;;19.90;42.90;;;23.81;28.32;102287.72;5054967;28;20044;-86
2021/12/20 02:18:37;;;;;;;0.95;0.60;;;19.90;42.80;;;23.83;28.26;102299.19;5021854;28;20056;-86
2021/12/20 02:21:04;;;;;;;1.40;0.73;;;19.90;42.80;;;23.83;28.14;102296.53;5038371;28;20091;-86
2021/12/20 02:23:30;;;;;;;0.88;0.70;;;19.90;42.80;;;23.85;28.30;102294.63;5054936;28;20485;-85
2021/12/20 02:25:56;;;;;;;0.73;0.52;;;19.90;42.80;;;23.84;28.45;102288.44;5038287;28;20140;-85
2021/12/20 02:28:24;;;;;;;0.90;0.63;;;19.90;42.80;;;23.81;28.43;102274.34;5053995;28;20108;-86
2021/12/20 02:36:55;;;;;;;0.88;0.60;;;19.90;42.80;;;23.84;28.34;102285.78;5035433;28;20060;-85
2021/12/20 02:39:10;;;;;;;0.95;0.60;;;19.90;42.80;;;23.82;28.22;102271.63;5040952;28;20061;-86
2021/12/20 02:41:35;;;;;;;1.27;0.77;;;19.90;42.80;;;23.84;28.09;102285.78;5055034;28;20188;-85
2021/12/20 02:44:06;;;;;;;1.08;0.82;;;19.90;42.70;;;23.82;28.28;102281.44;5021888;28;20053;-86
2021/12/20 02:49:06;;;;;;;1.13;0.70;;;19.90;42.70;;;23.83;28.47;102291.19;5037855;28;20045;-85
2021/12/20 02:51:32;;;;;;;0.63;0.60;;;19.90;42.80;;;23.84;28.24;102288.44;5038137;28;20053;-86
2021/12/20 02:54:01;;;;;;;1.27;0.60;;;19.90;42.80;;;23.82;28.43;102294.78;5021312;28;20052;-85
2021/12/20 02:56:26;;;;;;;1.25;0.65;;;19.90;42.80;;;23.83;28.23;102293.84;5053806;28;20049;-85
2021/12/20 02:58:53;;;;;;;0.98;0.82;;;19.90;42.80;;;23.81;28.44;102280.53;5053241;28;20049;-85
2021/12/20 03:01:20;;;;;;;2.25;0.95;;;19.90;42.80;;;23.81;28.23;102285.03;5054520;28;20064;-85
2021/12/20 03:03:48;;;;;;;1.45;0.90;;;19.90;42.80;;;23.85;28.19;102290.16;5054272;28;20524;-85
2021/12/20 03:06:37;;;;;;;1.75;1.00;;;19.90;42.70;;;23.84;28.31;102288.44;5021098;28;20040;-85
2021/12/20 03:09:08;;;;;;;1.25;0.60;;;19.90;43.20;;;23.85;28.40;102274.13;5054178;28;20056;-85
2021/12/20 03:11:36;;;;;;;0.98;0.80;;;20.00;42.70;;;23.90;28.35;102283.72;5036271;28;20406;-85
2021/12/20 03:14:12;;;;;;;0.95;0.70;;;19.90;42.70;;;23.86;28.29;102281.19;5054425;28;20382;-86
2021/12/20 03:16:38;;;;;;;0.80;0.70;;;19.90;42.70;;;23.89;28.40;102290.88;5052798;28;20077;-85
2021/12/20 03:19:04;;;;;;;1.02;0.80;;;20.00;42.70;;;23.86;28.25;102294.56;5037451;28;20529;-85
2021/12/20 03:21:31;;;;;;;0.63;0.60;;;20.00;42.70;;;23.85;28.10;102295.50;5036596;28;20057;-86
2021/12/20 03:23:57;;;;;;;0.88;0.70;;;20.00;42.70;;;23.85;28.29;102294.63;5054104;28;20048;-86
2021/12/20 03:26:23;;;;;;;1.58;0.75;;;20.00;42.70;;;23.88;28.32;102304.31;5052857;28;20053;-86
2021/12/20 03:28:51;;;;;;;0.80;0.80;;;20.00;42.70;;;23.87;28.18;102290.06;5053945;28;20624;-85
2021/12/20 03:31:17;;;;;;;0.70;0.60;;;20.00;42.70;;;23.89;28.34;102296.22;5053987;28;20056;-85
2021/12/20 03:33:43;;;;;;;0.98;0.85;;;20.00;42.60;;;23.88;28.18;102288.28;5053930;28;20044;-85
2021/12/20 03:36:09;;;;;;;0.90;0.60;;;19.90;42.60;;;23.88;28.32;102282.94;5052510;28;20067;-85
2021/12/20 03:38:36;;;;;;;1.20;0.70;;;20.00;42.60;;;23.89;28.34;102292.66;5037822;28;20079;-85
2021/12/20 03:41:02;;;;;;;0.88;0.60;;;20.00;42.60;;;23.88;28.33;102286.47;5053825;28;20053;-85
2021/12/20 03:43:31;;;;;;;1.38;0.70;;;20.00;42.60;;;23.88;28.23;102297.16;5024476;28;20385;-85
2021/12/20 03:46:02;;;;;;;1.02;0.70;;;20.00;42.60;;;23.89;28.11;102298.91;5024765;28;20444;-85
2021/12/20 03:48:28;;;;;;;0.90;0.90;;;20.00;42.50;;;23.90;28.26;102287.25;5057400;28;20044;-85
2021/12/20 03:50:56;;;;;;;1.88;0.70;;;20.00;42.50;;;23.89;28.13;102288.22;5053722;28;20131;-86
2021/12/20 03:53:22;;;;;;;1.70;0.82;;;20.00;42.50;;;23.89;28.19;102292.66;5075240;28;20072;-86
2021/12/20 03:55:47;;;;;;;0.82;0.63;;;20.00;42.50;;;23.92;28.29;102296.03;5056175;28;20041;-85
2021/12/20 03:58:13;;;;;;;0.63;0.63;;;20.00;42.40;;;23.94;28.21;102285.28;5057352;28;20548;-85
2021/12/20 04:00:40;;;;;;;1.10;0.82;;;20.00;42.40;;;23.94;28.22;102287.94;5023960;28;20124;-85
2021/12/20 04:03:11;;;;;;;0.93;0.90;;;20.00;42.50;;;23.94;28.17;102280.81;5057293;28;20044;-86
2021/12/20 04:05:38;;;;;;;1.02;0.80;;;20.00;42.40;;;23.96;28.24;102284.25;5024920;28;20131;-85
2021/12/20 04:08:05;;;;;;;1.42;0.85;;;20.10;42.50;;;23.99;28.10;102291.25;5056698;28;20105;-85
2021/12/20 04:10:31;;;;;;;0.75;0.60;;;20.10;42.50;;;23.98;28.16;102289.53;5039065;28;20144;-86
2021/12/20 04:12:57;;;;;;;0.98;0.90;;;20.00;42.50;;;23.96;28.34;102296.78;5022263;28;20519;-86
2021/12/20 04:15:23;;;;;;;1.00;0.80;;;20.10;42.50;;;23.95;28.13;102290.53;5021994;28;20059;-86
2021/12/20 04:17:49;;;;;;;0.70;0.70;;;20.10;42.50;;;23.94;28.08;102286.16;5022394;28;20153;-85
2021/12/20 04:20:15;;;;;;;0.85;0.70;;;20.00;42.40;;;23.97;28.18;102296.69;5040273;28;20064;-85
2021/12/20 04:22:40;;;;;;;1.88;0.98;;;20.00;42.40;;;23.97;28.22;102296.69;5023824;28;20452;-86
2021/12/20 04:25:07;;;;;;;1.13;0.70;;;20.10;43.00;;;23.99;28.06;102304.59;5056700;28;20559;-86
2021/12/20 04:27:33;;;;;;;1.38;0.80;;;20.10;42.50;;;24.00;28.01;102315.22;5039822;28;20131;-85
2021/12/20 04:29:58;;;;;;;0.93;0.77;;;20.10;42.50;;;23.98;28.15;102306.41;5023747;28;20048;-85
2021/12/20 04:32:24;;;;;;;0.93;0.73;;;20.10;42.40;;;23.97;27.93;102304.72;5023465;28;20478;-85
2021/12/20 04:34:50;;;;;;;1.52;0.77;;;20.10;42.40;;;24.02;28.11;102310.66;5057057;28;20071;-85
2021/12/20 04:37:17;;;;;;;0.88;0.70;;;20.10;42.30;;;23.98;28.16;102300.22;5056948;28;20051;-85
2021/12/20 04:39:43;;;;;;;0.90;0.70;;;20.10;42.30;;;23.99;28.03;102300.13;5039679;28;20045;-85
2021/12/20 04:42:11;;;;;;;0.88;0.77;;;20.10;42.30;;;23.98;28.28;102302.88;5039241;28;20151;-85
2021/12/20 04:44:38;;;;;;;1.25;0.77;;;20.10;42.30;;;23.98;27.98;102303.75;5056791;28;20056;-86
2021/12/20 04:47:04;;;;;;;1.88;0.98;;;20.10;42.20;;;24.01;28.04;102305.41;5038437;28;20041;-86
2021/12/20 04:49:30;;;;;;;1.25;0.85;;;20.10;42.30;;;24.04;28.02;102308.78;5023506;28;20494;-85
2021/12/20 04:51:56;;;;;;;1.20;0.93;;;20.10;42.20;;;23.98;28.12;102293.06;5056410;28;20044;-85
2021/12/20 04:54:22;;;;;;;1.25;0.77;;;20.10;42.30;;;24.01;28.03;102300.06;5036279;28;20144;-85
2021/12/20 04:56:48;;;;;;;1.00;0.70;;;20.10;42.30;;;24.02;27.99;102308.00;5056445;28;20045;-86
2021/12/20 04:59:14;;;;;;;1.23;0.70;;;20.10;42.30;;;24.01;28.14;102297.38;5038701;28;20052;-86
2021/12/20 05:01:40;;;;;;;1.48;0.77;;;20.10;42.30;;;24.02;27.88;102296.44;5023121;28;20044;-85
2021/12/20 05:04:06;;;;;;;0.75;0.70;;;20.10;42.30;;;24.01;27.95;102294.72;5054582;28;20041;-86
2021/12/20 05:06:33;;;;;;;1.73;0.93;;;20.10;42.30;;;24.02;27.90;102296.44;5022538;28;20056;-85
2021/12/20 05:09:01;;;;;;;1.02;0.70;;;20.10;42.30;;;24.03;28.12;102299.03;5039334;28;20497;-86
2021/12/20 05:11:29;;;;;;;0.95;0.80;;;20.10;42.30;;;24.03;27.99;102301.69;5055914;28;20555;-85
2021/12/20 05:13:54;;;;;;;1.48;0.95;;;20.10;42.20;;;24.05;27.84;102304.28;5056542;28;20489;-85
2021/12/20 05:16:20;;;;;;;0.80;0.68;;;20.10;42.30;;;24.03;27.80;102307.03;5039392;28;20054;-85
2021/12/20 05:18:46;;;;;;;1.00;0.88;;;20.10;42.30;;;24.04;27.84;102307.91;5054838;28;20057;-85
2021/12/20 05:21:12;;;;;;;0.93;0.73;;;20.10;42.30;;;24.02;28.00;102302.66;5038163;28;20057;-85
2021/12/20 05:23:38;;;;;;;1.30;0.90;;;20.10;42.30;;;24.02;27.99;102297.31;5039335;28;20098;-85
2021/12/20 05:26:05;;;;;;;1.42;1.08;;;20.10;42.30;;;24.01;28.03;102300.06;5055843;28;20509;-85
2021/12/20 05:28:30;;;;;;;1.27;0.70;;;20.10;42.30;;;24.03;27.98;102301.69;5038128;28;20053;-86
2021/12/20 05:30:56;;;;;;;1.00;0.70;;;20.10;42.30;;;24.02;27.96;102304.44;5019458;28;20180;-85
2021/12/20 05:33:23;;;;;;;0.90;0.68;;;20.00;42.30;;;24.01;27.96;102305.41;5055659;28;20056;-85
2021/12/20 05:35:50;;;;;;;1.80;0.90;;;20.10;42.30;;;24.03;27.87;102306.19;5055659;28;20064;-85
2021/12/20 05:38:15;;;;;;;0.90;0.50;;;20.10;42.40;;;24.03;28.10;102311.53;5056183;28;20071;-85
2021/12/20 05:40:42;;;;;;;1.33;0.80;;;20.10;42.40;;;24.00;27.97;102309.00;5053804;28;20045;-85
2021/12/20 05:43:07;;;;;;;0.73;0.73;;;20.00;42.30;;;23.99;28.00;102307.28;5038916;28;20045;-85
2021/12/20 05:45:33;;;;;;;0.77;0.60;;;20.10;42.30;;;23.97;28.03;102311.84;5054786;28;20405;-86
2021/12/20 05:47:59;;;;;;;1.10;0.70;;;20.10;42.30;;;24.00;27.88;102317.88;5038868;28;20076;-85
2021/12/20 05:50:25;;;;;;;1.40;0.77;;;20.00;42.60;;;24.00;28.03;102320.53;5055611;28;20512;-86
2021/12/20 05:52:51;;;;;;;1.45;0.65;;;20.10;42.30;;;24.02;28.16;102331.16;5021870;28;20476;-85
2021/12/20 05:55:18;;;;;;;1.13;1.00;;;20.10;42.30;;;24.01;28.01;102321.44;5055285;28;20059;-85
2021/12/20 05:57:45;;;;;;;0.80;0.70;;;20.10;42.30;;;24.01;27.93;102321.44;5053887;28;20107;-85
2021/12/20 06:00:18;;;;;;;0.95;0.70;;;20.10;42.30;;;23.99;27.94;102325.97;5051250;28;20068;-86
2021/12/20 06:02:47;;;;;;;0.73;0.68;;;20.10;42.30;;;23.99;28.08;102328.66;5039008;28;20056;-86
2021/12/20 06:05:13;;;;;;;1.02;0.90;;;20.10;42.30;;;24.04;28.08;102339.97;5052184;28;20040;-86
2021/12/20 06:07:41;;;;;;;0.80;0.70;;;20.10;42.30;;;24.00;27.97;102335.72;5038532;28;20049;-86
2021/12/20 06:10:12;;;;;;;0.90;0.75;;;20.10;42.30;;;24.00;27.91;102330.38;5038648;28;20057;-85
2021/12/20 06:12:40;;;;;;;1.00;0.80;;;20.00;42.30;;;24.00;27.93;102327.72;5055244;28;20140;-86
2021/12/20 06:15:07;;;;;;;1.13;0.70;;;20.10;42.30;;;24.02;28.04;102331.16;5054768;28;20051;-85
2021/12/20 06:17:34;;;;;;;1.95;0.70;;;20.00;42.30;;;24.02;28.01;102333.84;5055412;28;20044;-85
2021/12/20 06:20:05;;;;;;;1.00;0.77;;;20.10;42.40;;;23.99;28.04;102332.19;5038534;28;20490;-85
2021/12/20 06:22:31;;;;;;;1.00;0.80;;;20.00;42.40;;;23.99;27.99;102337.53;5055013;28;20048;-86
2021/12/20 06:24:57;;;;;;;1.08;0.60;;;20.00;42.30;;;23.99;27.95;102339.31;5038175;28;20044;-85
2021/12/20 06:27:22;;;;;;;1.85;0.70;;;20.00;42.30;;;24.00;27.89;102341.06;5055299;28;20044;-85
2021/12/20 06:29:48;;;;;;;0.85;0.73;;;20.00;42.30;;;24.00;27.96;102349.94;5038266;28;20513;-85
2021/12/20 06:32:15;;;;;;;1.48;0.90;;;20.00;42.30;;;24.00;27.95;102349.09;5038256;28;20375;-85
2021/12/20 06:34:41;;;;;;;0.75;0.75;;;20.00;42.30;;;24.00;28.10;102351.75;5038041;28;20078;-85
2021/12/20 06:37:07;;;;;;;0.85;0.68;;;20.00;42.30;;;23.99;28.23;102348.22;5038704;28;20048;-85
2021/12/20 06:39:33;;;;;;;1.77;1.02;;;20.00;42.30;;;23.97;27.95;102339.44;5020114;28;20494;-85
2021/12/20 06:41:59;;;;;;;0.73;0.70;;;20.00;42.30;;;23.99;27.95;102345.56;5054304;28;20139;-85
2021/12/20 06:44:25;;;;;;;0.70;0.70;;;20.00;42.30;;;24.00;28.00;102338.41;5052403;28;20060;-85
2021/12/20 06:46:52;;;;;;;0.70;0.68;;;20.10;42.40;;;23.98;28.12;102338.47;5054621;28;20044;-85
2021/12/20 06:49:18;;;;;;;0.80;0.50;;;20.00;42.30;;;23.98;28.07;102340.28;5038327;28;20094;-85
2021/12/20 06:51:44;;;;;;;0.93;0.80;;;20.00;42.30;;;23.97;28.13;102336.75;5021598;28;20068;-86
2021/12/20 06:54:14;;;;;;;0.68;0.68;;;20.00;42.80;;;23.96;27.89;102342.19;5035492;28;20062;-85
2021/12/20 06:56:40;;;;;;;0.93;0.70;;;20.00;42.40;;;23.94;27.90;102334.25;5037758;28;20513;-85
2021/12/20 06:59:06;;;;;;;1.00;0.88;;;20.00;42.40;;;23.95;27.92;102338.63;5054510;28;20076;-85
2021/12/20 07:01:32;;;;;;;0.80;0.75;;;20.00;42.30;;;24.00;28.00;102349.09;5037901;28;20093;-86
2021/12/20 07:03:58;;;;;;;0.55;0.52;;;20.00;42.30;;;23.98;28.05;102340.28;5037577;28;20482;-85
2021/12/20 07:06:24;;;;;;;1.35;0.88;;;20.00;42.30;;;23.95;28.05;102341.28;5037782;28;20036;-85
2021/12/20 07:08:50;;;;;;;0.60;0.60;;;20.00;42.30;;;23.98;28.15;102353.66;5037701;28;20048;-85
2021/12/20 07:11:16;;;;;;;1.10;0.70;;;20.10;42.40;;;24.00;27.97;102359.78;5037683;28;20398;-85
2021/12/20 07:13:42;;;;;;;0.82;0.80;;;20.10;42.40;;;23.96;27.93;102352.88;5052956;28;20045;-85
2021/12/20 07:16:08;;;;;;;0.90;0.60;;;20.00;42.30;;;23.97;27.97;102359.91;5039083;28;20055;-86
2021/12/20 07:18:35;;;;;;;1.25;0.65;;;20.00;42.30;;;23.98;28.02;102367.00;5057750;28;20052;-85
2021/12/20 07:21:02;;;;;;;0.70;0.68;;;20.00;42.30;;;23.97;27.84;102368.81;5075740;28;20048;-85
2021/12/20 07:23:28;;;;;;;1.30;0.73;;;20.00;42.30;;;24.00;28.00;102373.97;5041217;28;20048;-85
2021/12/20 07:25:54;;;;;;;0.75;0.68;;;20.00;42.30;;;23.96;27.93;102369.75;5057811;28;20375;-85
2021/12/20 07:28:19;;;;;;;0.93;0.75;;;20.00;42.30;;;24.00;28.03;102378.47;5041133;28;20059;-85
2021/12/20 07:30:47;;;;;;;0.98;0.80;;;20.00;42.30;;;23.97;28.09;102376.84;5039962;28;20074;-86
2021/12/20 07:33:15;;;;;;;0.70;0.70;;;20.00;42.30;;;23.99;27.93;102387.41;5057675;28;20075;-85
2021/12/20 07:35:44;;;;;;;0.70;0.70;;;20.10;42.40;;;23.99;27.95;102390.97;5024937;28;20037;-85
2021/12/20 07:38:13;;;;;;;1.00;0.85;;;20.00;42.30;;;23.98;28.01;102380.38;5024329;28;20072;-85
2021/12/20 07:40:44;;;;;;;0.88;0.60;;;20.00;42.30;;;23.98;27.97;102383.91;5041184;28;20070;-85
2021/12/20 07:43:10;;;;;;;0.95;0.63;;;20.00;42.30;;;24.03;27.98;102387.19;5040838;28;20481;-86
2021/12/20 07:45:37;;;;;;;0.93;0.80;;;20.00;42.20;;;24.01;28.02;102385.56;5024359;28;20071;-85
2021/12/20 07:48:03;;;;;;;1.23;0.80;;;20.10;42.30;;;23.97;27.94;102381.28;5057315;28;20044;-85
2021/12/20 07:50:30;;;;;;;0.60;0.60;;;20.10;42.30;;;24.00;27.94;102386.50;5040673;28;20055;-85
2021/12/20 07:52:55;;;;;;;1.92;0.80;;;20.00;42.20;;;23.98;27.98;102399.06;5040832;28;20040;-85
2021/12/20 07:55:21;;;;;;;1.33;0.82;;;20.10;42.20;;;23.97;27.92;102381.28;5024119;28;20064;-85
2021/12/20 07:57:47;;;;;;;1.30;0.70;;;20.10;42.20;;;24.03;27.81;102391.69;5022917;28;20517;-85
2021/12/20 08:00:14;;;;;;;0.95;0.85;;;20.10;42.20;;;24.04;28.05;102391.59;5057152;28;20075;-85
2021/12/20 08:02:40;;;;;;;1.40;0.68;;;20.10;42.10;;;24.05;27.89;102400.47;5057086;28;20548;-85
2021/12/20 08:05:07;;;;;;;1.13;0.70;;;20.10;42.10;;;24.07;27.99;102400.41;5057102;28;20044;-86
2021/12/20 08:07:33;;;;;;;1.48;1.00;;;20.10;42.10;;;24.06;27.99;102396.88;5057413;28;20064;-85
2021/12/20 08:10:00;;;;;;;0.85;0.60;;;20.10;42.10;;;24.01;27.83;102396.25;5023532;28;20127;-85
2021/12/20 08:12:26;;;;;;;1.02;0.73;;;20.10;42.00;;;24.08;27.97;102400.31;5023806;28;20057;-85
2021/12/20 08:14:52;;;;;;;0.93;0.80;;;20.10;42.00;;;24.08;27.88;102399.47;5056076;28;20045;-85
2021/12/20 08:17:18;;;;;;;0.68;0.68;;;20.10;42.00;;;24.07;27.88;102393.25;5054270;28;20058;-86
2021/12/20 08:19:45;;;;;;;0.80;0.80;;;20.10;42.00;;;24.06;27.85;102402.22;5054891;28;20051;-85
2021/12/20 08:22:11;;;;;;;0.73;0.70;;;20.10;42.00;;;24.08;27.87;102400.31;5040678;28;20044;-85
2021/12/20 08:24:37;;;;;;;1.25;0.80;;;20.10;42.00;;;24.04;27.79;102396.94;5038292;28;20088;-85
2021/12/20 08:27:03;;;;;;;0.85;0.80;;;20.10;42.10;;;24.07;27.89;102403.06;5023030;28;20076;-85
2021/12/20 08:29:29;;;;;;;1.95;0.70;;;20.10;42.00;;;24.07;27.87;102397.72;5055511;28;20057;-85
2021/12/20 08:31:59;;;;;;;0.82;0.80;;;20.10;42.00;;;24.05;27.79;102393.31;5056780;28;20105;-85
2021/12/20 08:34:25;;;;;;;0.70;0.65;;;20.10;42.10;;;24.05;27.80;102392.47;5055221;28;20064;-85
2021/12/20 08:36:50;;;;;;;0.65;0.65;;;20.10;42.00;;;24.09;27.89;102404.75;5056803;28;20393;-85
2021/12/20 08:39:19;;;;;;;0.70;0.70;;;20.10;42.00;;;24.07;27.75;102406.59;5056103;28;20049;-86
2021/12/20 08:41:46;;;;;;;0.80;0.63;;;20.10;42.00;;;24.07;27.82;102405.75;5057053;28;20048;-85
2021/12/20 08:44:11;;;;;;;1.00;0.80;;;20.10;42.00;;;24.08;27.85;102400.31;5056490;28;20045;-85
2021/12/20 08:46:37;;;;;;;1.20;0.60;;;20.10;42.00;;;24.09;27.83;102409.19;5039936;28;20057;-85
2021/12/20 08:49:03;;;;;;;1.13;0.60;;;20.10;42.60;;;24.09;27.72;102417.22;5056250;28;20086;-85
2021/12/20 08:51:30;;;;;;;0.85;0.55;;;20.10;42.00;;;24.08;27.80;102429.72;5055125;28;20123;-85
2021/12/20 08:53:56;;;;;;;0.57;0.57;;;20.10;42.00;;;24.09;27.78;102427.91;5023340;28;20048;-85
2021/12/20 08:56:22;;;;;;;0.73;0.73;;;20.20;42.00;;;24.09;27.85;102428.78;5039747;28;20053;-85
2021/12/20 08:58:48;;;;;;;0.80;0.60;;;20.20;42.00;;;24.10;27.85;102430.50;5055647;28;20517;-85
2021/12/20 09:01:14;;;;;;;1.13;0.60;;;20.20;42.00;;;24.10;27.74;102422.47;5056047;28;20040;-85
2021/12/20 09:03:40;;;;;;;0.70;0.70;;;20.20;42.00;;;24.10;27.76;102426.97;5056388;28;20541;-85
2021/12/20 09:06:08;;;;;;;0.77;0.77;;;20.20;42.00;;;24.08;27.85;102427.03;5056228;28;20501;-85
2021/12/20 09:08:34;;;;;;;0.98;0.70;;;20.20;42.00;;;24.12;27.66;102430.44;5039315;28;20124;-85
2021/12/20 09:11:00;;;;;;;1.50;0.70;;;20.20;42.00;;;24.11;27.78;102434.91;5056459;28;20044;-85
2021/12/20 09:13:26;;;;;;;0.82;0.70;;;20.20;41.90;;;24.08;27.72;102431.53;5039695;28;20409;-85
2021/12/20 09:15:54;;;;;;;0.73;0.73;;;20.20;41.90;;;24.11;27.94;102434.06;5039538;28;20045;-85
2021/12/20 09:18:20;;;;;;;0.73;0.63;;;20.20;42.00;;;24.15;27.73;102443.63;5023226;28;20498;-85
2021/12/20 09:20:46;;;;;;;0.50;0.50;;;20.20;41.90;;;24.12;27.76;102439.28;5054381;28;20407;-85
2021/12/20 09:23:13;;;;;;;0.70;0.70;;;20.20;42.00;;;24.12;27.72;102444.63;5023196;28;20044;-85
2021/12/20 09:25:43;;;;;;;0.75;0.65;;;20.20;41.90;;;24.08;27.82;102437.75;5021449;28;20136;-85
2021/12/20 09:28:13;;;;;;;0.95;0.70;;;20.20;41.90;;;24.11;27.87;102442.06;5039429;28;20081;-85
2021/12/20 09:30:41;;;;;;;0.50;0.50;;;20.20;41.90;;;24.09;27.56;102435.91;5022446;28;20044;-85
2021/12/20 09:33:08;;;;;;;0.98;0.77;;;20.20;41.90;;;24.11;27.84;102437.59;5055725;28;20482;-85
2021/12/20 09:35:34;;;;;;;0.68;0.63;;;20.20;41.90;;;24.11;27.52;102434.06;5055653;28;20040;-85
2021/12/20 09:38:06;;;;;;;1.02;0.65;;;20.20;41.90;;;24.12;27.73;102441.13;5038988;28;20432;-85
2021/12/20 09:40:34;;;;;;;0.57;0.57;;;20.20;41.90;;;24.15;27.66;102447.16;5039178;28;20052;-85
2021/12/20 09:43:06;;;;;;;0.65;0.60;;;20.20;41.90;;;24.13;27.74;102442.84;5052994;28;20407;-85
2021/12/20 09:45:32;;;;;;;0.85;0.60;;;20.20;41.90;;;24.14;27.73;102445.47;5038916;28;20155;-85
2021/12/20 09:47:58;;;;;;;2.03;0.98;;;20.20;41.90;;;24.15;27.78;102440.97;5055345;28;20132;-85
2021/12/20 09:50:26;;;;;;;0.57;0.47;;;20.30;41.80;;;24.16;27.65;102445.38;5055222;28;20173;-85
2021/12/20 09:52:52;;;;;;;0.70;0.70;;;20.30;41.80;;;24.13;27.66;102441.03;5037805;28;20105;-88
2021/12/20 09:55:19;;;;;;;0.60;0.60;;;20.30;41.90;;;24.18;27.89;102446.16;5055568;28;20045;-77
2021/12/20 09:57:49;;;;;;;2.50;1.13;;;20.30;41.70;;;24.14;27.61;102449.91;5071907;28;20139;-77
2021/12/20 10:00:20;;;;;;;1.73;1.33;;;20.40;42.10;;;24.14;27.61;102445.47;5036888;28;20049;-77
2021/12/20 10:02:47;;;;;;;1.45;0.73;;;20.40;41.30;;;24.14;27.43;102449.91;5055450;28;20083;-77
2021/12/20 10:05:15;;;;;;;1.48;0.77;;;20.40;41.30;;;24.14;27.51;102448.13;5038415;28;20051;-77
2021/12/20 10:07:42;;;;;;;0.80;0.70;;;20.40;41.20;;;24.14;27.63;102448.13;5054771;28;20098;-77
2021/12/20 10:10:10;;;;;;;2.28;0.82;;;20.50;41.20;;;24.14;27.32;102455.25;5054883;28;20072;-77
2021/12/20 10:12:48;;;;;;;1.00;0.90;;;20.50;41.20;;;24.12;27.65;102447.31;5054040;28;20050;-77
2021/12/20 10:15:15;;;;;;;1.13;0.70;;;20.50;41.20;;;24.16;27.42;102454.25;5055005;28;20048;-77
2021/12/20 10:17:59;;;;;;;1.23;0.93;;;20.50;41.20;;;24.18;27.59;102456.84;5054821;28;20110;-77
2021/12/20 10:20:33;;;;;;;1.02;0.80;;;20.50;41.20;;;24.16;27.56;102464.09;5055372;28;20075;-78
2021/12/20 10:23:18;;;;;;;0.85;0.80;;;20.50;41.20;;;24.13;27.57;102457.06;5038243;28;20052;-78
2021/12/20 10:25:47;;;;;;;1.35;0.77;;;20.50;41.20;;;24.16;27.55;102464.09;5022488;28;20062;-77
2021/12/20 10:28:19;;;;;;;1.02;0.70;;;20.50;41.10;;;24.16;27.55;102467.63;5054488;28;20127;-78